PWSweather.com
Personal Weather Stations
Station Observations
46800
XativaES 46800

XativaES 46800

Lat: 38.9917502, Lon: -0.5136488000000554

Elevation: 103

Station Type: Davis Vantage Pro2 Aspirated

http://www.meteoxativa.es/

Latest ConditionsUpdated 5:15:01 AM GMT+01:01 Friday, Dec 14, 2018
Currently Today's Max Today's Min Today's Average
Temperature 50.5°F10.3°C 52.2°F11.2°C 50.4°F10.2°C 51.4°F10.8°C
Dew Point 37.2°F2.9°C 42.7°F5.9°C 37.2°F2.9°C 39.9°F4.4°C
Winds 3.5 mph WSW5.6 kmh WSW 9.2 mph -14.8 kmh - - 6.2 mph 10.0 kmh
Wind Gusts 9.2 mph14.8 kmh 13.8 mph22.2 kmh - -
Humidity 60% 75% 60% 65%
Pressure 29.88 in1011.9 mb 29.88 in1011.9 mb 29.79 in1008.8 mb -
Precipitation - 0.01 in0.3 mm - -
Hour Temp Dew Point Humidity Winds Wind Gusts Pressure Precip Precip Rate Daily Precip Total
05:15 AM 50.5°F10.3°C 37.2°F2.9°C 60% 3.5 mph WSW5.6 kmh WSW 9.2 mph14.8 kmh 29.88 in1011.9 mb - 0.00 in0.0 mm 0.01 in0.3 mm
05:00 AM 50.7°F10.4°C 37.3°F2.9°C 60% 4.6 mph SW7.4 kmh SW 6.9 mph11.1 kmh 29.88 in1011.9 mb - 0.00 in0.0 mm 0.01 in0.3 mm
04:45 AM 50.9°F10.5°C 37.5°F3.1°C 60% 5.8 mph SW9.3 kmh SW 9.2 mph14.8 kmh 29.87 in1011.5 mb - 0.00 in0.0 mm 0.01 in0.3 mm
04:30 AM 51.1°F10.6°C 37.6°F3.1°C 60% 5.8 mph SW9.3 kmh SW 11.5 mph18.5 kmh 29.88 in1011.9 mb - 0.00 in0.0 mm 0.01 in0.3 mm
04:15 AM 51.4°F10.8°C 38.0°F3.3°C 60% 8.1 mph WSW13.0 kmh WSW 11.5 mph18.5 kmh 29.88 in1011.9 mb - 0.00 in0.0 mm 0.01 in0.3 mm
04:00 AM 51.6°F10.9°C 38.2°F3.4°C 60% 5.8 mph WSW9.3 kmh WSW 11.5 mph18.5 kmh 29.87 in1011.5 mb - 0.00 in0.0 mm 0.01 in0.3 mm
03:45 AM 51.8°F11.0°C 38.8°F3.8°C 61% 6.9 mph W11.1 kmh W 11.5 mph18.5 kmh 29.87 in1011.5 mb - 0.00 in0.0 mm 0.01 in0.3 mm
03:30 AM 51.8°F11.0°C 38.8°F3.8°C 61% 5.8 mph WNW9.3 kmh WNW 9.2 mph14.8 kmh 29.87 in1011.5 mb - 0.00 in0.0 mm 0.01 in0.3 mm
03:15 AM 51.7°F10.9°C 39.1°F3.9°C 62% 5.8 mph WSW9.3 kmh WSW 11.5 mph18.5 kmh 29.86 in1011.2 mb - 0.00 in0.0 mm 0.01 in0.3 mm
03:00 AM 52.2°F11.2°C 39.2°F4.0°C 61% 6.9 mph WSW11.1 kmh WSW 9.2 mph14.8 kmh 29.85 in1010.8 mb - 0.00 in0.0 mm 0.01 in0.3 mm
02:45 AM 51.9°F11.1°C 39.3°F4.1°C 62% 9.2 mph WSW14.8 kmh WSW 11.5 mph18.5 kmh 29.84 in1010.5 mb - 0.00 in0.0 mm 0.01 in0.3 mm
02:30 AM 51.9°F11.1°C 39.7°F4.3°C 63% 9.2 mph WSW14.8 kmh WSW 11.5 mph18.5 kmh 29.83 in1010.2 mb - 0.00 in0.0 mm 0.01 in0.3 mm
02:15 AM 51.9°F11.1°C 40.5°F4.7°C 65% 6.9 mph WSW11.1 kmh WSW 11.5 mph18.5 kmh 29.82 in1009.8 mb - 0.00 in0.0 mm 0.01 in0.3 mm
02:00 AM 51.9°F11.1°C 40.5°F4.7°C 65% 8.1 mph WSW13.0 kmh WSW 10.4 mph16.7 kmh 29.81 in1009.5 mb - 0.00 in0.0 mm 0.01 in0.3 mm
01:45 AM 51.8°F11.0°C 40.8°F4.9°C 66% 6.9 mph W11.1 kmh W 13.8 mph22.2 kmh 29.81 in1009.5 mb - 0.00 in0.0 mm 0.01 in0.3 mm
01:30 AM 51.8°F11.0°C 41.2°F5.1°C 67% 6.9 mph WSW11.1 kmh WSW 12.7 mph20.4 kmh 29.81 in1009.5 mb - 0.00 in0.0 mm 0.01 in0.3 mm
01:15 AM 51.4°F10.8°C 41.6°F5.3°C 69% 4.6 mph W7.4 kmh W 9.2 mph14.8 kmh 29.80 in1009.1 mb - 0.01 in0.3 mm 0.01 in0.3 mm
01:00 AM 51.1°F10.6°C 42.0°F5.6°C 71% 1.2 mph W1.9 kmh W 2.3 mph3.7 kmh 29.81 in1009.5 mb - 0.00 in0.0 mm 0.00 in0.0 mm
12:45 AM 51.2°F10.7°C 42.2°F5.7°C 71% 4.6 mph WNW7.4 kmh WNW 9.2 mph14.8 kmh 29.80 in1009.1 mb - 0.00 in0.0 mm 0.00 in0.0 mm
12:30 AM 50.8°F10.4°C 42.5°F5.8°C 73% 8.1 mph WSW13.0 kmh WSW 11.5 mph18.5 kmh 29.79 in1008.8 mb - 0.00 in0.0 mm 0.00 in0.0 mm
12:15 AM 50.5°F10.3°C 42.6°F5.9°C 74% 8.1 mph WSW13.0 kmh WSW 11.5 mph18.5 kmh 29.79 in1008.8 mb - 0.00 in0.0 mm 0.00 in0.0 mm
12:00 AM 50.4°F10.2°C 42.7°F5.9°C 75% 4.6 mph WSW7.4 kmh WSW 5.8 mph9.3 kmh 29.79 in1008.8 mb - 0.00 in0.0 mm 0.00 in0.0 mm